createdAt,value
2022-11-08T00:01:00.566Z,100304.03
2022-11-08T00:06:20.808Z,100300.91
2022-11-08T00:11:40.935Z,100299.59
2022-11-08T00:16:42.359Z,100303.03
2022-11-08T00:21:43.756Z,100302.41
2022-11-08T00:26:45.191Z,100301.88
2022-11-08T00:31:46.623Z,100297.25
2022-11-08T00:36:48.059Z,100303.28
2022-11-08T00:41:49.548Z,100289.94
2022-11-08T00:46:51.183Z,100301.22
2022-11-08T00:51:52.662Z,100297.03
2022-11-08T00:56:54.130Z,100300.28
2022-11-08T01:01:55.703Z,100298.31
2022-11-08T01:06:57.164Z,100299.06
2022-11-08T01:11:58.624Z,100288.78
2022-11-08T01:17:00.052Z,100281.66
2022-11-08T01:22:01.462Z,100280.97
2022-11-08T01:27:02.876Z,100273.66
2022-11-08T01:32:04.468Z,100284.00
2022-11-08T01:37:05.880Z,100282.38
2022-11-08T01:42:07.340Z,100290.19
2022-11-08T01:47:08.942Z,100283.69
2022-11-08T01:52:13.407Z,100275.47
2022-11-08T01:57:21.059Z,100283.44
2022-11-08T02:02:22.653Z,100282.03
2022-11-08T02:07:24.810Z,100274.91
2022-11-08T02:12:27.810Z,100272.22
2022-11-08T02:17:29.691Z,100262.56
2022-11-08T02:22:35.318Z,100266.19
2022-11-08T02:27:36.752Z,100262.25
2022-11-08T02:32:39.749Z,100261.34
2022-11-08T02:37:42.712Z,100261.94
2022-11-08T02:42:44.149Z,100275.75
2022-11-08T02:47:45.537Z,100268.38
2022-11-08T02:52:46.949Z,100269.25
2022-11-08T02:57:48.360Z,100280.38
2022-11-08T03:02:57.273Z,100280.59
2022-11-08T03:07:58.927Z,100274.03
2022-11-08T03:13:03.372Z,100276.19
2022-11-08T03:18:04.867Z,100268.22
2022-11-08T03:23:07.135Z,100278.47
2022-11-08T03:28:09.234Z,100269.84
2022-11-08T03:33:11.143Z,100277.34
2022-11-08T03:38:12.589Z,100274.25
2022-11-08T03:43:14.488Z,100280.19
2022-11-08T03:48:16.098Z,100274.34
2022-11-08T03:53:17.892Z,100276.75
2022-11-08T03:58:19.553Z,100280.94
2022-11-08T04:03:21.159Z,100280.22
2022-11-08T04:08:22.644Z,100279.22
2022-11-08T04:13:42.630Z,100275.41
2022-11-08T04:19:02.744Z,100279.03
2022-11-08T04:24:04.253Z,100270.03
2022-11-08T04:29:05.647Z,100267.66
2022-11-08T04:34:07.215Z,100270.41
2022-11-08T04:39:08.648Z,100273.88
2022-11-08T04:44:10.392Z,100269.16
2022-11-08T04:49:11.840Z,100269.34
2022-11-08T04:54:13.250Z,100273.00
2022-11-08T04:59:14.704Z,100276.16
2022-11-08T05:04:16.129Z,100267.16
2022-11-08T05:09:17.537Z,100262.19
2022-11-08T05:14:19.048Z,100262.00
2022-11-08T05:19:40.429Z,100258.34
2022-11-08T05:24:41.848Z,100266.47
2022-11-08T05:29:43.263Z,100266.09
2022-11-08T05:34:44.679Z,100260.06
2022-11-08T05:39:46.076Z,100257.94
2022-11-08T05:44:47.482Z,100262.72
2022-11-08T05:49:49.259Z,100265.59
2022-11-08T05:54:50.665Z,100267.91
2022-11-08T05:59:52.089Z,100277.34
2022-11-08T06:04:53.487Z,100279.44
2022-11-08T06:09:54.900Z,100286.13
2022-11-08T06:14:56.353Z,100294.19
2022-11-08T06:19:57.756Z,100287.19
2022-11-08T06:24:59.602Z,100284.50
2022-11-08T06:30:01.020Z,100294.78
2022-11-08T06:35:02.494Z,100289.03
2022-11-08T06:40:04.202Z,100284.31
2022-11-08T06:45:06.139Z,100288.25
2022-11-08T06:50:07.693Z,100298.03
2022-11-08T06:55:09.241Z,100295.91
2022-11-08T07:00:11.364Z,100302.31
2022-11-08T07:05:13.014Z,100305.06
2022-11-08T07:10:14.426Z,100307.16
2022-11-08T07:15:16.120Z,100303.66
2022-11-08T07:20:17.626Z,100311.88
2022-11-08T07:25:19.109Z,100306.72
2022-11-08T07:30:20.623Z,100302.22
2022-11-08T07:35:22.610Z,100298.28
2022-11-08T07:40:24.715Z,100292.41
2022-11-08T07:45:27.469Z,100286.94
2022-11-08T07:50:29.403Z,100295.22
2022-11-08T07:55:30.852Z,100298.81
2022-11-08T08:00:36.307Z,100293.91
2022-11-08T08:05:41.854Z,100291.59
2022-11-08T08:10:43.257Z,100291.81
2022-11-08T08:15:44.681Z,100288.69
2022-11-08T08:20:46.969Z,100294.88
2022-11-08T08:25:48.461Z,100283.84
2022-11-08T08:30:49.912Z,100290.63
2022-11-08T08:35:55.246Z,100289.97
2022-11-08T08:40:56.948Z,100289.44
2022-11-08T08:46:03.182Z,100298.91
2022-11-08T08:51:04.830Z,100299.00
2022-11-08T08:56:07.230Z,100295.84
2022-11-08T09:06:33.198Z,100291.41
2022-11-08T09:11:34.866Z,100297.28
2022-11-08T09:16:36.324Z,100296.38
2022-11-08T09:21:38.031Z,100289.38
2022-11-08T09:26:39.486Z,100290.06
2022-11-08T09:31:41.267Z,100289.56
2022-11-08T09:36:42.701Z,100287.69
2022-11-08T09:42:29.592Z,100290.72
2022-11-08T09:47:37.926Z,100284.78
2022-11-08T09:52:42.006Z,100280.56
2022-11-08T09:57:58.501Z,100275.16
2022-11-08T10:03:01.699Z,100274.16
2022-11-08T10:08:36.496Z,100274.25
2022-11-08T10:14:00.858Z,100267.59
2022-11-08T10:19:08.302Z,100266.03
2022-11-08T10:24:20.529Z,100251.16
2022-11-08T10:29:27.859Z,100254.91
2022-11-08T10:34:39.593Z,100240.50
2022-11-08T10:39:54.609Z,100240.69
2022-11-08T10:44:56.144Z,100235.44
2022-11-08T10:50:03.399Z,100230.88
2022-11-08T10:55:23.233Z,100224.09
2022-11-08T11:00:24.552Z,100215.66
2022-11-08T11:05:35.532Z,100213.00
2022-11-08T11:10:41.363Z,100217.28
2022-11-08T11:15:47.775Z,100200.81
2022-11-08T11:21:05.883Z,100196.28
2022-11-08T11:26:17.231Z,100195.97
2022-11-08T11:31:18.700Z,100197.88
2022-11-08T11:36:24.443Z,100188.53
2022-11-08T11:41:36.620Z,100185.31
2022-11-08T11:46:55.207Z,100188.06
2022-11-08T11:51:58.043Z,100189.53
2022-11-08T11:57:07.589Z,100179.44
2022-11-08T12:02:36.939Z,100180.69
2022-11-08T12:07:46.446Z,100172.22
2022-11-08T12:13:09.347Z,100161.50
2022-11-08T12:18:50.657Z,100145.63
2022-11-08T12:24:15.440Z,100143.78
2022-11-08T12:29:24.225Z,100143.16
2022-11-08T12:34:49.391Z,100145.19
2022-11-08T12:40:00.575Z,100135.22
2022-11-08T12:45:34.152Z,100145.19
2022-11-08T12:50:46.041Z,100136.16
2022-11-08T12:55:48.554Z,100137.31
2022-11-08T13:00:52.405Z,100128.00
2022-11-08T13:06:08.004Z,100122.38
2022-11-08T13:11:16.710Z,100116.88
2022-11-08T13:16:24.287Z,100119.50
2022-11-08T13:21:25.632Z,100118.78
2022-11-08T13:26:28.328Z,100123.31
2022-11-08T13:31:43.380Z,100110.75
2022-11-08T13:36:51.452Z,100112.50
2022-11-08T13:42:04.280Z,100098.59
2022-11-08T13:47:34.561Z,100088.69
2022-11-08T13:52:47.583Z,100090.13
2022-11-08T13:58:00.910Z,100088.09
2022-11-08T14:03:02.513Z,100082.50
2022-11-08T14:08:16.137Z,100089.00
2022-11-08T14:13:33.667Z,100086.09
2022-11-08T14:18:39.120Z,100090.03
2022-11-08T14:23:42.234Z,100080.22
2022-11-08T14:28:46.696Z,100078.84
2022-11-08T14:33:48.182Z,100077.75
2022-11-08T14:39:03.064Z,100067.47
2022-11-08T14:44:04.961Z,100069.75
2022-11-08T14:49:15.731Z,100059.78
2022-11-08T14:54:19.724Z,100060.38
2022-11-08T14:59:23.778Z,100063.22
2022-11-08T15:04:26.036Z,100065.81
2022-11-08T15:09:31.445Z,100067.41
2022-11-08T15:14:36.268Z,100065.25
2022-11-08T15:19:46.085Z,100067.09
2022-11-08T15:24:47.512Z,100064.66
2022-11-08T15:29:51.339Z,100060.06
2022-11-08T15:34:55.503Z,100064.34
2022-11-08T15:40:07.436Z,100063.13
2022-11-08T15:45:17.805Z,100062.78
2022-11-08T15:50:24.904Z,100068.91
2022-11-08T15:55:30.056Z,100067.34
2022-11-08T16:00:36.336Z,100069.84
2022-11-08T16:05:38.154Z,100064.66
2022-11-08T16:10:45.998Z,100067.34
2022-11-08T16:15:48.125Z,100048.19
2022-11-08T16:20:49.615Z,100044.31
2022-11-08T16:25:54.690Z,100040.88
2022-11-08T16:30:56.983Z,100041.09
2022-11-08T16:36:06.443Z,100042.06
2022-11-08T16:41:07.896Z,100049.47
2022-11-08T16:46:09.627Z,100045.13
2022-11-08T16:51:18.742Z,100049.94
2022-11-08T16:56:20.086Z,100058.84
2022-11-08T17:01:27.483Z,100060.25
2022-11-08T17:06:29.020Z,100062.47
2022-11-08T17:11:30.566Z,100068.63
2022-11-08T17:16:32.365Z,100067.00
2022-11-08T17:21:49.608Z,100063.91
2022-11-08T17:26:51.066Z,100065.41
2022-11-08T17:31:53.029Z,100070.97
2022-11-08T17:36:54.493Z,100055.63
2022-11-08T17:41:55.931Z,100050.25
2022-11-08T17:46:57.459Z,100038.00
2022-11-08T17:51:58.935Z,100046.34
2022-11-08T17:57:00.775Z,100045.25
2022-11-08T18:02:02.364Z,100046.63
2022-11-08T18:07:04.049Z,100048.63
2022-11-08T18:12:05.771Z,100049.00
2022-11-08T18:17:07.276Z,100051.34
2022-11-08T18:22:08.755Z,100053.28
2022-11-08T18:27:10.190Z,100054.03
2022-11-08T18:32:11.615Z,100059.44
2022-11-08T18:37:13.058Z,100043.47
2022-11-08T18:42:14.462Z,100047.66
2022-11-08T18:47:15.917Z,100043.72
2022-11-08T18:52:17.570Z,100051.81
2022-11-08T18:57:19.814Z,100047.53
2022-11-08T19:02:22.041Z,100050.09
2022-11-08T19:07:24.297Z,100047.41
2022-11-08T19:12:28.523Z,100051.06
2022-11-08T19:17:31.827Z,100060.13
2022-11-08T19:22:33.297Z,100057.19
2022-11-08T19:27:34.718Z,100061.03
2022-11-08T19:32:36.132Z,100057.34
2022-11-08T19:37:37.569Z,100072.81
2022-11-08T19:42:38.970Z,100077.97
2022-11-08T19:47:40.424Z,100072.81
2022-11-08T19:52:41.816Z,100075.00
2022-11-08T19:57:43.248Z,100076.72
2022-11-08T20:02:44.836Z,100072.03
2022-11-08T20:07:47.032Z,100084.03
2022-11-08T20:12:48.505Z,100091.09
2022-11-08T20:17:49.937Z,100085.31
2022-11-08T20:22:51.353Z,100084.88
2022-11-08T20:27:52.825Z,100081.59
2022-11-08T20:32:54.243Z,100084.31
2022-11-08T20:37:58.554Z,100074.50
2022-11-08T20:42:59.948Z,100082.19
2022-11-08T20:48:02.878Z,100083.06
2022-11-08T20:53:04.475Z,100088.28
2022-11-08T20:58:05.981Z,100078.16
2022-11-08T21:03:07.457Z,100080.00
2022-11-08T21:08:57.831Z,100086.72
2022-11-08T21:13:32.797Z,100084.25
2022-11-08T21:18:35.887Z,100087.47
2022-11-08T21:23:39.249Z,100079.25
2022-11-08T21:28:41.248Z,100080.84
2022-11-08T21:33:42.901Z,100077.94
2022-11-08T21:38:44.483Z,100070.47
2022-11-08T21:43:47.537Z,100074.75
2022-11-08T21:48:56.872Z,100074.13
2022-11-08T21:53:59.174Z,100068.69
2022-11-08T21:59:01.505Z,100073.00
2022-11-08T22:04:02.955Z,100070.53
2022-11-08T22:09:04.503Z,100072.03
2022-11-08T22:14:05.906Z,100071.34
2022-11-08T22:19:07.801Z,100077.50
2022-11-08T22:24:15.112Z,100077.06
2022-11-08T22:29:17.192Z,100066.66
2022-11-08T22:34:18.968Z,100064.47
2022-11-08T22:39:23.081Z,100067.78
2022-11-08T22:44:24.543Z,100058.72
2022-11-08T22:49:25.996Z,100057.41
2022-11-08T22:54:27.454Z,100061.09
2022-11-08T22:59:28.880Z,100054.94
2022-11-08T23:04:30.286Z,100046.22
2022-11-08T23:09:31.691Z,100057.88
2022-11-08T23:14:51.880Z,100058.84
2022-11-08T23:20:11.839Z,100051.00
2022-11-08T23:25:13.289Z,100044.13
2022-11-08T23:30:35.566Z,100050.00
2022-11-08T23:35:36.992Z,100049.28
2022-11-08T23:40:58.685Z,100044.13
2022-11-08T23:46:11.879Z,100045.78
2022-11-08T23:51:13.275Z,100045.91
2022-11-08T23:56:25.539Z,100054.13
